sensor_id;sensor_type;location;lat;lon;timestamp;P1;durP1;ratioP1;P2;durP2;ratioP2
25609;SDS011;13479;49.044;8.716;2023-09-19T04:02:06;5.70;;;1.20;;
25609;SDS011;13479;49.044;8.716;2023-09-19T04:04:36;3.72;;;1.30;;
25609;SDS011;13479;49.044;8.716;2023-09-19T04:07:02;6.88;;;1.35;;
25609;SDS011;13479;49.044;8.716;2023-09-19T04:09:27;3.72;;;1.15;;
25609;SDS011;13479;49.044;8.716;2023-09-19T04:11:52;1.65;;;1.20;;
25609;SDS011;13479;49.044;8.716;2023-09-19T04:14:18;2.28;;;1.10;;
25609;SDS011;13479;49.044;8.716;2023-09-19T04:16:43;4.15;;;1.30;;
25609;SDS011;13479;49.044;8.716;2023-09-19T04:19:08;5.32;;;1.40;;
25609;SDS011;13479;49.044;8.716;2023-09-19T04:21:34;3.13;;;1.17;;
25609;SDS011;13479;49.044;8.716;2023-09-19T04:23:59;2.25;;;1.13;;
25609;SDS011;13479;49.044;8.716;2023-09-19T04:26:24;1.63;;;0.98;;
25609;SDS011;13479;49.044;8.716;2023-09-19T04:28:51;5.28;;;1.38;;
25609;SDS011;13479;49.044;8.716;2023-09-19T04:31:16;3.85;;;1.05;;
25609;SDS011;13479;49.044;8.716;2023-09-19T04:33:43;4.82;;;1.15;;
25609;SDS011;13479;49.044;8.716;2023-09-19T04:36:08;2.95;;;1.20;;
25609;SDS011;13479;49.044;8.716;2023-09-19T04:38:34;7.13;;;1.30;;
25609;SDS011;13479;49.044;8.716;2023-09-19T04:41:00;5.03;;;1.20;;
25609;SDS011;13479;49.044;8.716;2023-09-19T04:43:25;4.60;;;1.40;;
25609;SDS011;13479;49.044;8.716;2023-09-19T04:45:51;4.55;;;1.42;;
25609;SDS011;13479;49.044;8.716;2023-09-19T04:48:20;9.27;;;1.75;;
25609;SDS011;13479;49.044;8.716;2023-09-19T04:50:48;6.43;;;1.33;;
25609;SDS011;13479;49.044;8.716;2023-09-19T04:53:13;5.10;;;1.50;;
25609;SDS011;13479;49.044;8.716;2023-09-19T04:55:38;4.43;;;1.60;;
25609;SDS011;13479;49.044;8.716;2023-09-19T04:58:04;3.67;;;1.30;;
25609;SDS011;13479;49.044;8.716;2023-09-19T05:00:29;12.15;;;1.80;;
25609;SDS011;13479;49.044;8.716;2023-09-19T05:02:55;5.82;;;1.40;;
25609;SDS011;13479;49.044;8.716;2023-09-19T05:05:22;5.07;;;1.35;;
25609;SDS011;13479;49.044;8.716;2023-09-19T05:07:48;4.82;;;1.50;;
25609;SDS011;13479;49.044;8.716;2023-09-19T05:10:14;2.78;;;1.48;;
25609;SDS011;13479;49.044;8.716;2023-09-19T05:12:41;3.63;;;1.50;;
25609;SDS011;13479;49.044;8.716;2023-09-19T05:15:07;3.10;;;1.25;;
25609;SDS011;13479;49.044;8.716;2023-09-19T05:17:33;5.05;;;1.52;;
25609;SDS011;13479;49.044;8.716;2023-09-19T05:19:59;3.70;;;1.33;;
25609;SDS011;13479;49.044;8.716;2023-09-19T05:22:31;5.50;;;1.70;;
25609;SDS011;13479;49.044;8.716;2023-09-19T05:24:57;3.85;;;1.52;;
25609;SDS011;13479;49.044;8.716;2023-09-19T05:27:23;5.15;;;1.73;;
25609;SDS011;13479;49.044;8.716;2023-09-19T05:29:48;4.32;;;1.20;;
25609;SDS011;13479;49.044;8.716;2023-09-19T05:32:15;5.72;;;1.48;;
25609;SDS011;13479;49.044;8.716;2023-09-19T05:34:41;8.75;;;1.50;;
25609;SDS011;13479;49.044;8.716;2023-09-19T05:37:06;4.40;;;1.33;;
25609;SDS011;13479;49.044;8.716;2023-09-19T05:39:32;4.47;;;1.60;;
25609;SDS011;13479;49.044;8.716;2023-09-19T05:41:57;7.57;;;1.63;;
25609;SDS011;13479;49.044;8.716;2023-09-19T05:44:22;3.58;;;1.40;;
25609;SDS011;13479;49.044;8.716;2023-09-19T05:46:48;4.57;;;1.40;;
25609;SDS011;13479;49.044;8.716;2023-09-19T05:49:13;3.58;;;1.40;;
25609;SDS011;13479;49.044;8.716;2023-09-19T05:51:39;5.93;;;1.55;;
25609;SDS011;13479;49.044;8.716;2023-09-19T05:54:04;2.50;;;1.27;;
25609;SDS011;13479;49.044;8.716;2023-09-19T05:56:30;2.35;;;1.30;;
25609;SDS011;13479;49.044;8.716;2023-09-19T05:58:56;3.65;;;1.20;;
25609;SDS011;13479;49.044;8.716;2023-09-19T06:01:21;3.40;;;1.23;;
25609;SDS011;13479;49.044;8.716;2023-09-19T06:03:47;2.47;;;1.30;;
25609;SDS011;13479;49.044;8.716;2023-09-19T06:06:12;6.03;;;1.40;;
25609;SDS011;13479;49.044;8.716;2023-09-19T06:08:38;3.58;;;1.40;;
25609;SDS011;13479;49.044;8.716;2023-09-19T06:11:03;3.03;;;1.70;;
25609;SDS011;13479;49.044;8.716;2023-09-19T06:13:32;5.80;;;1.50;;
25609;SDS011;13479;49.044;8.716;2023-09-19T06:15:58;3.05;;;1.45;;
25609;SDS011;13479;49.044;8.716;2023-09-19T06:18:25;3.50;;;1.30;;
25609;SDS011;13479;49.044;8.716;2023-09-19T06:20:51;4.25;;;1.33;;
25609;SDS011;13479;49.044;8.716;2023-09-19T06:23:16;4.07;;;1.30;;
25609;SDS011;13479;49.044;8.716;2023-09-19T06:25:42;2.85;;;1.08;;
25609;SDS011;13479;49.044;8.716;2023-09-19T06:28:08;3.55;;;1.30;;
25609;SDS011;13479;49.044;8.716;2023-09-19T06:30:36;4.18;;;1.55;;
25609;SDS011;13479;49.044;8.716;2023-09-19T06:33:05;1.98;;;1.10;;
25609;SDS011;13479;49.044;8.716;2023-09-19T06:35:32;5.10;;;1.23;;
25609;SDS011;13479;49.044;8.716;2023-09-19T06:37:58;4.25;;;1.48;;
25609;SDS011;13479;49.044;8.716;2023-09-19T06:40:23;5.47;;;1.60;;
25609;SDS011;13479;49.044;8.716;2023-09-19T06:42:52;5.88;;;1.40;;
25609;SDS011;13479;49.044;8.716;2023-09-19T06:45:18;3.85;;;1.40;;
25609;SDS011;13479;49.044;8.716;2023-09-19T06:47:45;5.22;;;1.58;;
25609;SDS011;13479;49.044;8.716;2023-09-19T06:50:11;5.55;;;1.30;;
25609;SDS011;13479;49.044;8.716;2023-09-19T06:52:40;5.30;;;1.25;;
25609;SDS011;13479;49.044;8.716;2023-09-19T06:55:06;5.50;;;1.40;;
25609;SDS011;13479;49.044;8.716;2023-09-19T06:57:32;2.80;;;1.20;;
25609;SDS011;13479;49.044;8.716;2023-09-19T06:59:57;3.08;;;1.13;;
25609;SDS011;13479;49.044;8.716;2023-09-19T07:02:22;5.22;;;1.50;;
25609;SDS011;13479;49.044;8.716;2023-09-19T07:04:48;4.10;;;1.30;;
25609;SDS011;13479;49.044;8.716;2023-09-19T07:07:14;3.50;;;1.40;;
25609;SDS011;13479;49.044;8.716;2023-09-19T07:09:40;5.55;;;1.40;;
25609;SDS011;13479;49.044;8.716;2023-09-19T07:12:05;5.68;;;1.25;;
25609;SDS011;13479;49.044;8.716;2023-09-19T07:14:30;3.53;;;1.30;;
25609;SDS011;13479;49.044;8.716;2023-09-19T07:16:56;4.43;;;1.30;;
25609;SDS011;13479;49.044;8.716;2023-09-19T07:19:21;5.72;;;1.30;;
25609;SDS011;13479;49.044;8.716;2023-09-19T07:21:46;4.15;;;1.27;;
25609;SDS011;13479;49.044;8.716;2023-09-19T07:24:12;5.55;;;1.10;;
25609;SDS011;13479;49.044;8.716;2023-09-19T07:26:38;5.32;;;1.27;;
25609;SDS011;13479;49.044;8.716;2023-09-19T07:29:04;4.18;;;1.17;;
25609;SDS011;13479;49.044;8.716;2023-09-19T07:31:31;5.18;;;1.33;;
25609;SDS011;13479;49.044;8.716;2023-09-19T07:33:57;3.85;;;1.30;;
25609;SDS011;13479;49.044;8.716;2023-09-19T07:36:22;4.13;;;1.35;;
25609;SDS011;13479;49.044;8.716;2023-09-19T07:38:49;8.15;;;2.42;;
25609;SDS011;13479;49.044;8.716;2023-09-19T07:41:14;2.65;;;1.33;;
25609;SDS011;13479;49.044;8.716;2023-09-19T07:43:39;3.30;;;1.30;;
25609;SDS011;13479;49.044;8.716;2023-09-19T07:46:08;3.88;;;1.20;;
25609;SDS011;13479;49.044;8.716;2023-09-19T07:48:36;2.78;;;1.27;;
25609;SDS011;13479;49.044;8.716;2023-09-19T07:51:04;3.90;;;1.10;;
25609;SDS011;13479;49.044;8.716;2023-09-19T07:53:31;4.00;;;1.10;;
25609;SDS011;13479;49.044;8.716;2023-09-19T07:56:03;3.05;;;1.15;;
25609;SDS011;13479;49.044;8.716;2023-09-19T07:58:32;1.90;;;0.80;;
25609;SDS011;13479;49.044;8.716;2023-09-19T08:01:02;3.97;;;1.20;;
25609;SDS011;13479;49.044;8.716;2023-09-19T08:03:29;3.63;;;1.70;;
25609;SDS011;13479;49.044;8.716;2023-09-19T08:05:55;5.05;;;1.35;;
25609;SDS011;13479;49.044;8.716;2023-09-19T08:08:22;2.63;;;1.10;;
25609;SDS011;13479;49.044;8.716;2023-09-19T08:10:52;5.68;;;1.30;;
25609;SDS011;13479;49.044;8.716;2023-09-19T08:13:18;4.05;;;1.20;;
25609;SDS011;13479;49.044;8.716;2023-09-19T08:15:43;3.28;;;1.20;;
25609;SDS011;13479;49.044;8.716;2023-09-19T08:18:09;2.25;;;0.90;;
25609;SDS011;13479;49.044;8.716;2023-09-19T08:20:37;2.85;;;1.15;;
25609;SDS011;13479;49.044;8.716;2023-09-19T08:23:02;3.08;;;1.13;;
25609;SDS011;13479;49.044;8.716;2023-09-19T08:25:28;3.53;;;1.20;;
25609;SDS011;13479;49.044;8.716;2023-09-19T08:27:54;5.60;;;1.55;;
25609;SDS011;13479;49.044;8.716;2023-09-19T08:30:25;3.75;;;1.10;;
25609;SDS011;13479;49.044;8.716;2023-09-19T08:32:58;2.08;;;1.05;;
25609;SDS011;13479;49.044;8.716;2023-09-19T08:35:24;2.83;;;1.30;;
25609;SDS011;13479;49.044;8.716;2023-09-19T08:37:49;1.58;;;0.80;;
25609;SDS011;13479;49.044;8.716;2023-09-19T08:40:16;3.00;;;1.23;;
25609;SDS011;13479;49.044;8.716;2023-09-19T08:42:52;3.28;;;1.15;;
25609;SDS011;13479;49.044;8.716;2023-09-19T08:45:19;4.35;;;1.38;;
25609;SDS011;13479;49.044;8.716;2023-09-19T08:47:46;3.97;;;1.25;;
25609;SDS011;13479;49.044;8.716;2023-09-19T08:50:23;5.47;;;1.10;;
25609;SDS011;13479;49.044;8.716;2023-09-19T08:52:53;4.22;;;1.27;;
25609;SDS011;13479;49.044;8.716;2023-09-19T08:55:21;3.35;;;1.00;;
25609;SDS011;13479;49.044;8.716;2023-09-19T08:57:52;2.03;;;0.80;;
25609;SDS011;13479;49.044;8.716;2023-09-19T09:00:24;2.67;;;0.90;;
25609;SDS011;13479;49.044;8.716;2023-09-19T09:02:52;3.17;;;0.75;;
25609;SDS011;13479;49.044;8.716;2023-09-19T09:05:20;3.78;;;1.10;;
25609;SDS011;13479;49.044;8.716;2023-09-19T09:07:48;3.75;;;1.10;;
25609;SDS011;13479;49.044;8.716;2023-09-19T09:10:16;2.75;;;0.90;;
25609;SDS011;13479;49.044;8.716;2023-09-19T09:12:42;2.55;;;0.90;;
25609;SDS011;13479;49.044;8.716;2023-09-19T09:15:09;1.85;;;0.80;;
25609;SDS011;13479;49.044;8.716;2023-09-19T09:17:36;3.80;;;1.00;;
25609;SDS011;13479;49.044;8.716;2023-09-19T09:20:02;3.58;;;1.10;;
25609;SDS011;13479;49.044;8.716;2023-09-19T09:22:29;3.92;;;1.00;;
25609;SDS011;13479;49.044;8.716;2023-09-19T09:24:57;3.83;;;1.08;;
25609;SDS011;13479;49.044;8.716;2023-09-19T09:27:29;3.65;;;0.80;;
25609;SDS011;13479;49.044;8.716;2023-09-19T09:29:56;3.60;;;1.00;;
25609;SDS011;13479;49.044;8.716;2023-09-19T09:32:23;3.35;;;1.10;;
25609;SDS011;13479;49.044;8.716;2023-09-19T09:34:57;2.00;;;0.88;;
25609;SDS011;13479;49.044;8.716;2023-09-19T09:37:23;5.38;;;0.95;;
25609;SDS011;13479;49.044;8.716;2023-09-19T09:39:55;3.17;;;0.80;;
25609;SDS011;13479;49.044;8.716;2023-09-19T09:42:29;2.55;;;0.90;;
25609;SDS011;13479;49.044;8.716;2023-09-19T09:45:42;2.75;;;1.00;;
25609;SDS011;13479;49.044;8.716;2023-09-19T09:50:24;3.63;;;0.70;;
25609;SDS011;13479;49.044;8.716;2023-09-19T09:53:28;3.13;;;0.93;;
25609;SDS011;13479;49.044;8.716;2023-09-19T09:58:35;1.77;;;0.80;;
25609;SDS011;13479;49.044;8.716;2023-09-19T10:01:02;3.10;;;1.17;;
25609;SDS011;13479;49.044;8.716;2023-09-19T10:03:35;2.80;;;1.10;;
25609;SDS011;13479;49.044;8.716;2023-09-19T10:06:06;2.70;;;0.95;;
25609;SDS011;13479;49.044;8.716;2023-09-19T10:08:59;3.28;;;0.90;;
25609;SDS011;13479;49.044;8.716;2023-09-19T10:11:34;3.22;;;0.70;;
25609;SDS011;13479;49.044;8.716;2023-09-19T10:14:04;3.78;;;1.08;;
25609;SDS011;13479;49.044;8.716;2023-09-19T10:16:31;2.80;;;0.90;;
25609;SDS011;13479;49.044;8.716;2023-09-19T10:18:59;3.63;;;1.00;;
25609;SDS011;13479;49.044;8.716;2023-09-19T10:21:27;3.20;;;0.93;;
25609;SDS011;13479;49.044;8.716;2023-09-19T10:23:55;3.60;;;0.80;;
25609;SDS011;13479;49.044;8.716;2023-09-19T10:26:24;2.35;;;0.80;;
25609;SDS011;13479;49.044;8.716;2023-09-19T10:28:54;3.30;;;0.90;;
25609;SDS011;13479;49.044;8.716;2023-09-19T10:31:20;2.25;;;0.88;;
25609;SDS011;13479;49.044;8.716;2023-09-19T10:33:49;4.53;;;1.15;;
25609;SDS011;13479;49.044;8.716;2023-09-19T10:36:15;3.30;;;0.85;;
25609;SDS011;13479;49.044;8.716;2023-09-19T10:38:41;1.98;;;0.95;;
25609;SDS011;13479;49.044;8.716;2023-09-19T10:41:11;3.40;;;0.90;;
25609;SDS011;13479;49.044;8.716;2023-09-19T10:43:41;3.63;;;1.00;;
25609;SDS011;13479;49.044;8.716;2023-09-19T10:46:09;4.13;;;0.70;;
25609;SDS011;13479;49.044;8.716;2023-09-19T10:48:37;3.97;;;0.90;;
25609;SDS011;13479;49.044;8.716;2023-09-19T10:51:13;1.98;;;0.98;;
25609;SDS011;13479;49.044;8.716;2023-09-19T10:53:51;3.78;;;0.90;;
25609;SDS011;13479;49.044;8.716;2023-09-19T10:56:19;2.05;;;1.02;;
25609;SDS011;13479;49.044;8.716;2023-09-19T10:58:48;3.20;;;0.82;;
25609;SDS011;13479;49.044;8.716;2023-09-19T11:01:14;3.30;;;1.00;;
25609;SDS011;13479;49.044;8.716;2023-09-19T11:03:40;3.20;;;0.93;;
25609;SDS011;13479;49.044;8.716;2023-09-19T11:06:13;2.97;;;0.80;;
25609;SDS011;13479;49.044;8.716;2023-09-19T11:08:57;4.30;;;1.00;;
25609;SDS011;13479;49.044;8.716;2023-09-19T11:11:50;5.47;;;1.15;;
25609;SDS011;13479;49.044;8.716;2023-09-19T11:30:47;3.55;;;0.95;;
25609;SDS011;13479;49.044;8.716;2023-09-19T11:36:09;4.13;;;1.02;;
25609;SDS011;13479;49.044;8.716;2023-09-19T11:43:49;2.60;;;0.93;;
25609;SDS011;13479;49.044;8.716;2023-09-19T11:46:20;6.78;;;1.15;;
25609;SDS011;13479;49.044;8.716;2023-09-19T11:48:49;4.28;;;1.10;;
25609;SDS011;13479;49.044;8.716;2023-09-19T11:51:15;2.83;;;1.10;;
25609;SDS011;13479;49.044;8.716;2023-09-19T11:53:51;3.55;;;0.90;;
25609;SDS011;13479;49.044;8.716;2023-09-19T11:56:22;3.80;;;0.95;;
25609;SDS011;13479;49.044;8.716;2023-09-19T11:58:53;5.60;;;1.10;;
25609;SDS011;13479;49.044;8.716;2023-09-19T12:01:32;2.22;;;0.90;;
25609;SDS011;13479;49.044;8.716;2023-09-19T12:04:01;2.65;;;1.00;;
25609;SDS011;13479;49.044;8.716;2023-09-19T12:06:29;3.45;;;0.90;;
25609;SDS011;13479;49.044;8.716;2023-09-19T12:11:40;3.53;;;1.00;;
25609;SDS011;13479;49.044;8.716;2023-09-19T12:14:08;2.65;;;1.00;;
25609;SDS011;13479;49.044;8.716;2023-09-19T12:16:34;2.85;;;1.00;;
25609;SDS011;13479;49.044;8.716;2023-09-19T12:19:17;3.90;;;1.15;;
25609;SDS011;13479;49.044;8.716;2023-09-19T12:21:52;2.92;;;0.80;;
25609;SDS011;13479;49.044;8.716;2023-09-19T12:24:19;3.60;;;0.90;;
25609;SDS011;13479;49.044;8.716;2023-09-19T12:26:45;2.72;;;0.90;;
25609;SDS011;13479;49.044;8.716;2023-09-19T12:29:18;4.80;;;0.80;;
25609;SDS011;13479;49.044;8.716;2023-09-19T12:31:52;2.97;;;1.00;;
25609;SDS011;13479;49.044;8.716;2023-09-19T12:34:25;2.35;;;0.80;;
25609;SDS011;13479;49.044;8.716;2023-09-19T12:39:40;3.05;;;0.90;;
25609;SDS011;13479;49.044;8.716;2023-09-19T12:42:08;3.70;;;1.13;;
25609;SDS011;13479;49.044;8.716;2023-09-19T12:44:38;3.42;;;1.27;;
25609;SDS011;13479;49.044;8.716;2023-09-19T12:47:08;4.70;;;1.40;;
25609;SDS011;13479;49.044;8.716;2023-09-19T12:52:44;4.43;;;1.70;;
25609;SDS011;13479;49.044;8.716;2023-09-19T12:55:23;5.03;;;1.52;;
25609;SDS011;13479;49.044;8.716;2023-09-19T12:58:11;5.18;;;1.45;;
25609;SDS011;13479;49.044;8.716;2023-09-19T13:00:38;6.47;;;1.40;;
25609;SDS011;13479;49.044;8.716;2023-09-19T13:05:54;4.13;;;1.20;;
25609;SDS011;13479;49.044;8.716;2023-09-19T13:08:22;2.83;;;1.00;;
25609;SDS011;13479;49.044;8.716;2023-09-19T13:11:01;2.90;;;1.00;;
25609;SDS011;13479;49.044;8.716;2023-09-19T13:13:34;2.45;;;0.98;;
25609;SDS011;13479;49.044;8.716;2023-09-19T13:16:01;1.80;;;0.88;;
25609;SDS011;13479;49.044;8.716;2023-09-19T13:18:27;3.28;;;1.00;;
25609;SDS011;13479;49.044;8.716;2023-09-19T13:21:08;4.32;;;0.90;;
25609;SDS011;13479;49.044;8.716;2023-09-19T13:23:40;5.32;;;1.02;;
25609;SDS011;13479;49.044;8.716;2023-09-19T13:26:07;3.33;;;1.02;;
25609;SDS011;13479;49.044;8.716;2023-09-19T13:28:33;3.30;;;1.10;;
25609;SDS011;13479;49.044;8.716;2023-09-19T13:30:59;3.17;;;1.00;;
25609;SDS011;13479;49.044;8.716;2023-09-19T13:33:24;2.50;;;1.13;;
25609;SDS011;13479;49.044;8.716;2023-09-19T13:35:51;2.45;;;0.80;;
25609;SDS011;13479;49.044;8.716;2023-09-19T13:38:17;3.63;;;1.10;;
25609;SDS011;13479;49.044;8.716;2023-09-19T13:40:43;3.13;;;1.10;;
25609;SDS011;13479;49.044;8.716;2023-09-19T13:43:08;1.85;;;0.70;;
25609;SDS011;13479;49.044;8.716;2023-09-19T13:45:34;3.28;;;0.80;;
25609;SDS011;13479;49.044;8.716;2023-09-19T13:47:59;1.60;;;0.80;;
25609;SDS011;13479;49.044;8.716;2023-09-19T13:50:24;5.05;;;0.90;;
25609;SDS011;13479;49.044;8.716;2023-09-19T13:52:50;3.25;;;0.90;;
25609;SDS011;13479;49.044;8.716;2023-09-19T13:55:19;2.33;;;0.90;;
25609;SDS011;13479;49.044;8.716;2023-09-19T13:57:45;3.25;;;1.10;;
25609;SDS011;13479;49.044;8.716;2023-09-19T14:00:15;4.60;;;0.90;;
25609;SDS011;13479;49.044;8.716;2023-09-19T14:02:41;2.92;;;0.82;;
25609;SDS011;13479;49.044;8.716;2023-09-19T14:05:09;2.28;;;0.75;;
25609;SDS011;13479;49.044;8.716;2023-09-19T14:07:37;6.28;;;0.88;;
25609;SDS011;13479;49.044;8.716;2023-09-19T14:10:02;3.22;;;1.10;;
25609;SDS011;13479;49.044;8.716;2023-09-19T14:12:28;2.03;;;0.80;;
25609;SDS011;13479;49.044;8.716;2023-09-19T14:14:54;1.95;;;0.90;;
25609;SDS011;13479;49.044;8.716;2023-09-19T14:17:21;2.97;;;1.02;;
25609;SDS011;13479;49.044;8.716;2023-09-19T14:19:46;4.80;;;1.30;;
25609;SDS011;13479;49.044;8.716;2023-09-19T14:22:11;10.30;;;2.20;;
25609;SDS011;13479;49.044;8.716;2023-09-19T14:24:38;2.08;;;0.80;;
25609;SDS011;13479;49.044;8.716;2023-09-19T14:27:06;3.25;;;1.20;;
25609;SDS011;13479;49.044;8.716;2023-09-19T14:29:33;3.30;;;1.10;;
25609;SDS011;13479;49.044;8.716;2023-09-19T14:31:59;6.28;;;1.58;;
25609;SDS011;13479;49.044;8.716;2023-09-19T14:34:24;1.70;;;0.70;;
25609;SDS011;13479;49.044;8.716;2023-09-19T14:36:49;2.75;;;0.90;;
25609;SDS011;13479;49.044;8.716;2023-09-19T14:39:14;5.15;;;0.90;;
25609;SDS011;13479;49.044;8.716;2023-09-19T14:41:40;2.78;;;0.80;;
25609;SDS011;13479;49.044;8.716;2023-09-19T14:44:05;2.00;;;0.70;;
25609;SDS011;13479;49.044;8.716;2023-09-19T14:46:30;2.80;;;0.70;;
25609;SDS011;13479;49.044;8.716;2023-09-19T14:48:56;2.35;;;0.63;;
25609;SDS011;13479;49.044;8.716;2023-09-19T14:51:24;1.75;;;0.70;;
25609;SDS011;13479;49.044;8.716;2023-09-19T14:53:50;2.83;;;0.85;;
25609;SDS011;13479;49.044;8.716;2023-09-19T14:56:15;3.03;;;0.70;;
25609;SDS011;13479;49.044;8.716;2023-09-19T14:58:43;1.30;;;0.68;;
25609;SDS011;13479;49.044;8.716;2023-09-19T15:01:09;1.75;;;0.80;;
25609;SDS011;13479;49.044;8.716;2023-09-19T15:03:35;2.22;;;0.65;;
25609;SDS011;13479;49.044;8.716;2023-09-19T15:06:04;1.45;;;0.60;;
25609;SDS011;13479;49.044;8.716;2023-09-19T15:08:37;1.63;;;0.70;;
25609;SDS011;13479;49.044;8.716;2023-09-19T15:11:05;2.60;;;0.63;;
25609;SDS011;13479;49.044;8.716;2023-09-19T15:13:31;2.97;;;0.80;;
25609;SDS011;13479;49.044;8.716;2023-09-19T15:16:01;1.35;;;0.70;;
25609;SDS011;13479;49.044;8.716;2023-09-19T15:18:30;1.85;;;0.57;;
25609;SDS011;13479;49.044;8.716;2023-09-19T15:20:56;2.08;;;0.75;;
25609;SDS011;13479;49.044;8.716;2023-09-19T15:23:22;1.38;;;0.60;;
25609;SDS011;13479;49.044;8.716;2023-09-19T15:25:48;2.33;;;0.60;;
25609;SDS011;13479;49.044;8.716;2023-09-19T15:28:14;1.17;;;0.52;;
25609;SDS011;13479;49.044;8.716;2023-09-19T15:30:39;1.00;;;0.60;;
25609;SDS011;13479;49.044;8.716;2023-09-19T15:33:04;2.28;;;0.60;;
25609;SDS011;13479;49.044;8.716;2023-09-19T15:35:30;1.25;;;0.60;;
25609;SDS011;13479;49.044;8.716;2023-09-19T15:37:55;1.63;;;0.70;;
25609;SDS011;13479;49.044;8.716;2023-09-19T15:40:21;1.42;;;0.57;;
25609;SDS011;13479;49.044;8.716;2023-09-19T15:42:48;3.15;;;0.90;;
25609;SDS011;13479;49.044;8.716;2023-09-19T15:45:14;11.82;;;2.10;;
25609;SDS011;13479;49.044;8.716;2023-09-19T15:47:40;1.40;;;0.75;;
25609;SDS011;13479;49.044;8.716;2023-09-19T15:50:06;1.83;;;0.90;;
25609;SDS011;13479;49.044;8.716;2023-09-19T15:52:34;3.10;;;0.80;;
25609;SDS011;13479;49.044;8.716;2023-09-19T15:55:02;1.85;;;0.70;;
25609;SDS011;13479;49.044;8.716;2023-09-19T15:57:28;1.35;;;0.80;;
25609;SDS011;13479;49.044;8.716;2023-09-19T15:59:53;1.77;;;0.73;;
25609;SDS011;13479;49.044;8.716;2023-09-19T16:02:19;1.38;;;0.50;;
25609;SDS011;13479;49.044;8.716;2023-09-19T16:04:44;1.88;;;0.60;;
25609;SDS011;13479;49.044;8.716;2023-09-19T16:07:10;2.75;;;0.70;;
25609;SDS011;13479;49.044;8.716;2023-09-19T16:09:35;2.38;;;0.70;;
25609;SDS011;13479;49.044;8.716;2023-09-19T16:12:00;1.10;;;0.63;;
25609;SDS011;13479;49.044;8.716;2023-09-19T16:14:25;2.42;;;0.70;;
25609;SDS011;13479;49.044;8.716;2023-09-19T16:16:54;3.28;;;0.90;;
25609;SDS011;13479;49.044;8.716;2023-09-19T16:19:19;6.05;;;0.98;;
25609;SDS011;13479;49.044;8.716;2023-09-19T16:21:44;2.17;;;0.90;;
25609;SDS011;13479;49.044;8.716;2023-09-19T16:24:10;2.20;;;0.80;;
25609;SDS011;13479;49.044;8.716;2023-09-19T16:26:36;1.23;;;0.70;;
25609;SDS011;13479;49.044;8.716;2023-09-19T16:29:02;5.80;;;0.80;;
25609;SDS011;13479;49.044;8.716;2023-09-19T16:31:28;1.77;;;0.70;;
25609;SDS011;13479;49.044;8.716;2023-09-19T16:33:54;1.58;;;0.63;;
25609;SDS011;13479;49.044;8.716;2023-09-19T16:36:24;4.05;;;0.80;;
25609;SDS011;13479;49.044;8.716;2023-09-19T16:38:50;1.75;;;0.90;;
25609;SDS011;13479;49.044;8.716;2023-09-19T16:41:16;1.90;;;0.85;;
25609;SDS011;13479;49.044;8.716;2023-09-19T16:43:44;2.08;;;0.73;;
25609;SDS011;13479;49.044;8.716;2023-09-19T16:46:10;2.08;;;0.70;;
25609;SDS011;13479;49.044;8.716;2023-09-19T16:48:37;3.97;;;0.95;;
25609;SDS011;13479;49.044;8.716;2023-09-19T16:51:05;1.40;;;0.80;;
25609;SDS011;13479;49.044;8.716;2023-09-19T16:53:33;1.13;;;0.70;;
25609;SDS011;13479;49.044;8.716;2023-09-19T16:56:03;5.00;;;0.80;;
25609;SDS011;13479;49.044;8.716;2023-09-19T16:58:37;3.42;;;0.77;;
25609;SDS011;13479;49.044;8.716;2023-09-19T17:01:03;2.05;;;0.80;;
25609;SDS011;13479;49.044;8.716;2023-09-19T17:03:34;3.65;;;0.90;;
25609;SDS011;13479;49.044;8.716;2023-09-19T17:06:00;2.80;;;0.80;;
25609;SDS011;13479;49.044;8.716;2023-09-19T17:08:26;2.58;;;0.82;;
25609;SDS011;13479;49.044;8.716;2023-09-19T17:11:05;3.47;;;1.02;;
25609;SDS011;13479;49.044;8.716;2023-09-19T17:13:35;1.98;;;1.08;;
25609;SDS011;13479;49.044;8.716;2023-09-19T17:16:04;2.47;;;0.90;;
25609;SDS011;13479;49.044;8.716;2023-09-19T17:18:32;3.80;;;1.00;;
25609;SDS011;13479;49.044;8.716;2023-09-19T17:20:59;3.45;;;0.80;;
25609;SDS011;13479;49.044;8.716;2023-09-19T17:23:28;2.75;;;0.90;;
25609;SDS011;13479;49.044;8.716;2023-09-19T17:26:07;5.03;;;1.23;;
25609;SDS011;13479;49.044;8.716;2023-09-19T17:28:39;5.25;;;1.10;;
25609;SDS011;13479;49.044;8.716;2023-09-19T17:31:24;1.85;;;0.88;;
25609;SDS011;13479;49.044;8.716;2023-09-19T17:33:51;3.20;;;0.90;;
25609;SDS011;13479;49.044;8.716;2023-09-19T17:36:19;3.22;;;0.73;;
25609;SDS011;13479;49.044;8.716;2023-09-19T17:38:46;2.17;;;0.80;;
25609;SDS011;13479;49.044;8.716;2023-09-19T17:41:13;3.83;;;1.10;;
25609;SDS011;13479;49.044;8.716;2023-09-19T17:43:40;2.97;;;0.98;;
25609;SDS011;13479;49.044;8.716;2023-09-19T17:46:07;2.00;;;0.82;;
25609;SDS011;13479;49.044;8.716;2023-09-19T17:48:41;2.28;;;1.13;;
25609;SDS011;13479;49.044;8.716;2023-09-19T17:51:08;2.80;;;1.20;;
25609;SDS011;13479;49.044;8.716;2023-09-19T17:53:34;3.05;;;1.25;;
25609;SDS011;13479;49.044;8.716;2023-09-19T17:56:01;3.97;;;1.40;;
25609;SDS011;13479;49.044;8.716;2023-09-19T17:58:28;4.93;;;1.30;;
25609;SDS011;13479;49.044;8.716;2023-09-19T18:00:53;2.22;;;1.30;;
25609;SDS011;13479;49.044;8.716;2023-09-19T18:03:19;4.15;;;0.98;;
25609;SDS011;13479;49.044;8.716;2023-09-19T18:05:44;3.20;;;1.42;;
25609;SDS011;13479;49.044;8.716;2023-09-19T18:08:10;1.98;;;1.15;;
25609;SDS011;13479;49.044;8.716;2023-09-19T18:10:37;5.57;;;1.50;;
25609;SDS011;13479;49.044;8.716;2023-09-19T18:13:03;2.83;;;1.33;;
25609;SDS011;13479;49.044;8.716;2023-09-19T18:15:28;3.72;;;1.40;;
25609;SDS011;13479;49.044;8.716;2023-09-19T18:17:58;5.55;;;1.50;;
25609;SDS011;13479;49.044;8.716;2023-09-19T18:20:23;4.30;;;1.20;;
25609;SDS011;13479;49.044;8.716;2023-09-19T18:22:49;3.83;;;1.20;;
25609;SDS011;13479;49.044;8.716;2023-09-19T18:25:14;3.17;;;1.25;;
25609;SDS011;13479;49.044;8.716;2023-09-19T18:27:40;2.67;;;1.13;;
25609;SDS011;13479;49.044;8.716;2023-09-19T18:30:06;1.55;;;0.90;;
25609;SDS011;13479;49.044;8.716;2023-09-19T18:32:33;5.07;;;1.00;;
25609;SDS011;13479;49.044;8.716;2023-09-19T18:34:58;3.55;;;1.10;;
25609;SDS011;13479;49.044;8.716;2023-09-19T18:37:24;2.67;;;0.88;;
25609;SDS011;13479;49.044;8.716;2023-09-19T18:39:49;3.53;;;1.02;;
25609;SDS011;13479;49.044;8.716;2023-09-19T18:42:14;2.72;;;1.00;;
25609;SDS011;13479;49.044;8.716;2023-09-19T18:44:40;4.50;;;0.88;;
25609;SDS011;13479;49.044;8.716;2023-09-19T18:47:05;3.25;;;1.20;;
25609;SDS011;13479;49.044;8.716;2023-09-19T18:49:30;3.20;;;0.80;;
25609;SDS011;13479;49.044;8.716;2023-09-19T18:51:56;2.00;;;0.80;;
25609;SDS011;13479;49.044;8.716;2023-09-19T18:54:21;2.45;;;0.80;;
25609;SDS011;13479;49.044;8.716;2023-09-19T18:56:47;2.65;;;0.98;;
25609;SDS011;13479;49.044;8.716;2023-09-19T18:59:13;2.38;;;0.80;;
25609;SDS011;13479;49.044;8.716;2023-09-19T19:01:38;3.10;;;1.02;;
25609;SDS011;13479;49.044;8.716;2023-09-19T19:04:05;2.58;;;1.10;;
25609;SDS011;13479;49.044;8.716;2023-09-19T19:06:30;4.22;;;1.15;;
25609;SDS011;13479;49.044;8.716;2023-09-19T19:08:55;1.50;;;0.80;;
25609;SDS011;13479;49.044;8.716;2023-09-19T19:11:21;1.58;;;0.90;;
25609;SDS011;13479;49.044;8.716;2023-09-19T19:13:47;2.95;;;1.00;;
25609;SDS011;13479;49.044;8.716;2023-09-19T19:16:12;3.45;;;1.10;;
25609;SDS011;13479;49.044;8.716;2023-09-19T19:18:39;1.90;;;1.00;;
25609;SDS011;13479;49.044;8.716;2023-09-19T19:21:06;2.60;;;1.30;;
25609;SDS011;13479;49.044;8.716;2023-09-19T19:23:34;2.95;;;1.25;;
25609;SDS011;13479;49.044;8.716;2023-09-19T19:26:00;2.67;;;1.23;;
25609;SDS011;13479;49.044;8.716;2023-09-19T19:28:27;2.72;;;1.23;;
25609;SDS011;13479;49.044;8.716;2023-09-19T19:30:53;3.15;;;1.23;;
25609;SDS011;13479;49.044;8.716;2023-09-19T19:33:19;3.22;;;1.30;;